Arlington, Mississippi
Current Conditions -  °F | °C
As of 3:35 AM on Sunday 23 Nov 2014 (Local Time) from K1R7 Reporting Station
Haze Haze  
Wind Chill: 61°   Ceiling: 300
Heat Index: 61°   Visibility: 5mi
Dew Point: 61°   Wind: 6mph
Humidity: 100%   Direction: 110°ESE
Pressure: 29.79"   Gusts: NA
Location:  31.4439°N, 90.4692°W
Report Text: K1R7 230935Z AUTO 11005KT 5SM BR OVC003 16/16 A2979 RMK AO2
Loading
Personal Weather Stations






























Interactive Weather Map New forecast layout! Learn more

10-Day Weather Forecast

Advertisements
Track Severe Weather on mobile